Autryville, NC

12:30 PM EST on January 31, 2015 (GMT -0500)
Big Creek | Change Station
CLOSE
Current Station
Personal Weather Station
Location: Stedman, NC
Elevation: 98 ft
Nearby Weather Stations

Elev 98 ft 35.04 °N, 78.67 °W | Updated 1 second ago

Clear
Clear
45.3 °F
Feels Like 45 °F
N
2.0
Wind Variable Wind from WSW
Gusts 6.0 mph

Today
High -- | Low -- °F
--% Chance of Precip.
Yesterday
High -- | Low -- °F
Precip. -- in
7:14 AM 5:41 PM
Waxing Gibbous, 90% visible
Pressure 30.38 in
Visibility 10.0 miles
Clouds Clear
Windchill 45 °F
Dew Point 12 °F
Humidity 25%
Rainfall 0.00 in
Snow Depth Not available.
UV 5 out of 12
Pollen 3.10 out of 12
Air Quality Not available.
Flu Activity Not available.
METAR KCTZ 311715Z AUTO 30006KT 10SM CLR 06/M13 A3038 RMK AO2 T00601128

More Conditions Fewer Conditions

Pressure 30.38 in
Visibility 10.0 miles
Clouds Clear
Windchill 45 °F
Dew Point 12 °F
Humidity 25%
Rainfall 0.00 in
Snow Depth Not available.
UV 5 out of 12
Pollen 3.10 out of 12
Air Quality Not available.
Flu Activity Not available.
METAR KCTZ 311715Z AUTO 30006KT 10SM CLR 06/M13 A3038 RMK AO2 T00601128

More Conditions Fewer Conditions

10-Day Weather Forecast

Almanac

Astronomy

Jan. 31, 2015 Rise Set
Actual Time
Civil Twilight
Nautical Twilight
Astronomical Twilight
Moon
Length of Visible Light
Length of Day
Tomorrow will be .
, % of the Moon is Illuminated

Today's Extremes

State Highs State Lows

Community

WunderPhotos

Upload Photos

1,792,128 photos uploaded!

WunderBlogs® & News

Nearby

Air Quality

  Air Quality AQ Index Pollutant
Not available.

Snow Depth

Station Depth Elevation

Earthquake Activity

City Distance Mag. Time & Date
Minimum magnitude displayed is 2.5.

Coastal Water Temperatures

Place Temperature

Nearby Weather Stations